Home > Products > Valid Products > MTR

000
SAUS43 KFSD 192353
MTR9V9
METAR K9V9 192352Z AUTO 03004KT 20/M06 A3001 RMK AO1 SLP158
T02001056 10217 20167 55002





000
SAUS43 KFSD 192254
MTR9V9
METAR K9V9 192252Z AUTO 35008KT 21/M06 A3000 RMK AO1 SLP154
T02111056





000
SAUS43 KFSD 192154
MTR9V9
METAR K9V9 192152Z AUTO 28007KT 21/M04 A3000 RMK AO1 SLP156
T02111044





000
SAUS43 KFSD 192053
MTR9V9
METAR K9V9 192052Z AUTO VRB04KT 19/M04 A3001 RMK AO1 SLP157
T01941044 56007





000
SAUS43 KFSD 191953
MTR9V9
METAR K9V9 191952Z AUTO VRB03KT 19/M04 A3002 RMK AO1 SLP159
T01941044





000
SAUS43 KFSD 191853
MTR9V9
METAR K9V9 191852Z AUTO 00000KT 18/M05 A3003 RMK AO1 SLP162
T01831050





000
SAUS43 KFSD 191753
MTR9V9
METAR K9V9 191752Z AUTO 35007KT 17/M03 A3004 RMK AO1 SLP165
T01671028 10172 20083 51010





000
SAUS43 KFSD 191653
MTR9V9
METAR K9V9 191652Z AUTO 01007KT 16/M02 A3003 RMK AO1 SLP164
T01611017





000
SAUS43 KFSD 191553
MTR9V9
METAR K9V9 191552Z AUTO 34008KT 14/01 A3002 RMK AO1 SLP161 T01440006





000
SAUS43 KFSD 191453
MTR9V9
METAR K9V9 191452Z AUTO 32009KT 12/02 A3001 RMK AO1 SLP157 T01220022
51027





000
SAUS43 KFSD 191353
MTR9V9
METAR K9V9 191352Z AUTO 29006KT 10/03 A2999 RMK AO1 SLP154 T01000028





000
SAUS43 KFSD 191253
MTR9V9
METAR K9V9 191252Z AUTO 30005KT 10/04 A2996 RMK AO1 SLP143 T01000039





000
SAUS43 KFSD 191153
MTR9V9
METAR K9V9 191152Z AUTO 00000KT 10/04 A2992 RMK AO1 SLP129 T01000039
10183 20100 51040





000
SAUS43 KFSD 191053
MTR9V9
METAR K9V9 191052Z AUTO 33012KT 11/04 A2989 RMK AO1 PK WND
32026/0959 SLP118 T01110044





000
SAUS43 KFSD 190953
MTR9V9
METAR K9V9 190952Z AUTO 32015G25KT 13/05 A2986 RMK AO1 SLP103
T01280050





000
SAUS43 KFSD 190853
MTR9V9
METAR K9V9 190852Z AUTO 26010KT 16/06 A2980 RMK AO1 SLP080 T01560061
53010





000
SAUS43 KFSD 190753
MTR9V9
METAR K9V9 190752Z AUTO 22020KT 18/06 A2975 RMK AO1 PK WND
21031/0729 SLP064 T01780061





000
SAUS43 KFSD 190653
MTR9V9
METAR K9V9 190652Z AUTO 22022G27KT 18/06 A2976 RMK AO1 PK WND
21028/0640 SLP068 T01830061





000
SAUS43 KFSD 190553
MTR9V9
METAR K9V9 190552Z AUTO 24013G26KT 18/06 A2977 RMK AO1 PK WND
20034/0459 SLP071 T01830061 10211 20183 402560017 53008





000
SAUS43 KFSD 190453
MTR9V9
METAR K9V9 190452Z AUTO 20027G33KT 19/06 A2970 RMK AO1 PK WND
19039/0440 SLP050 T01890056





000
SAUS43 KFSD 190353
MTR9V9
METAR K9V9 190352Z AUTO 17022G27KT 19/06 A2972 RMK AO1 PK WND
18030/0258 SLP059 T01890061





000
SAUS43 KFSD 190253
MTR9V9
METAR K9V9 190252Z AUTO 17021G29KT 19/06 A2974 RMK AO1 PK WND
17030/0221 SLP066 T01940056 55002





000
SAUS43 KFSD 190153
MTR9V9
METAR K9V9 190152Z AUTO 18022G31KT 20/05 A2973 RMK AO1 PK WND
19031/0104 SLP066 T02000050





000
SAUS43 KFSD 190053
MTR9V9
METAR K9V9 190052Z AUTO 18024G33KT 21/05 A2972 RMK AO1 PK WND
18036/2354 SLP065 T02060050





000
SAUS43 KFSD 182353
MTR9V9
METAR K9V9 182352Z AUTO 18024G34KT 21/05 A2975 RMK AO1 PK WND
20038/2316 SLP073 T02110050 10256 20200 56017





000
SAUS43 KFSD 182253
MTR9V9
METAR K9V9 182252Z AUTO 19026G34KT 23/04 A2977 RMK AO1 PK WND
19041/2224 SLP080 T02280044





000
SAUS43 KFSD 182153
MTR9V9
METAR K9V9 182152Z AUTO 18027G37KT 24/03 A2977 RMK AO1 PK WND
18040/2058 SLP081 T02390028





000
SAUS43 KFSD 182053
MTR9V9
METAR K9V9 182052Z AUTO 18025G38KT 26/03 A2980 RMK AO1 PK WND
18040/2002 SLP087 T02560028 58031





000
SAUS43 KFSD 181953
MTR9V9
METAR K9V9 181952Z AUTO 17030G37KT 24/02 A2983 RMK AO1 PK WND
17037/1944 SLP098 T02390022





000
SAUS43 KFSD 181853
MTR9V9
METAR K9V9 181852Z AUTO 18024G33KT 23/03 A2987 RMK AO1 PK WND
19035/1801 SLP114 T02280028





000
SAUS43 KFSD 181753
MTR9V9
METAR K9V9 181752Z AUTO 18028G34KT 20/03 A2990 RMK AO1 PK WND
18034/1752 SLP125 T02000033 10206 20022 58023





000
SAUS43 KFSD 181653
MTR9V9
METAR K9V9 181652Z AUTO 18022G31KT 18/03 A2993 RMK AO1 PK WND
19034/1626 SLP138 T01780033





000
SAUS43 KFSD 181553
MTR9V9
METAR K9V9 181552Z AUTO 18019G27KT 15/03 A2995 RMK AO1 PK WND
19028/1527 SLP144 T01500033





000
SAUS43 KFSD 181453
MTR9V9
METAR K9V9 181452Z AUTO 17021G25KT 12/02 A2997 RMK AO1 PK WND
16026/1439 SLP153 T01170022 58020





000
SAUS43 KFSD 181353
MTR9V9
METAR K9V9 181352Z AUTO 15016KT 07/M01 A3000 RMK AO1 SLP167
T00671006





000
SAUS43 KFSD 181253
MTR9V9
METAR K9V9 181252Z AUTO 14018KT 04/M03 A3000 RMK AO1 SLP169
T00391028





000
SAUS43 KFSD 181153
MTR9V9
METAR K9V9 181152Z AUTO 14014KT 02/M03 A3003 RMK AO1 SLP179
T00221033 10033 20017 56018





000
SAUS43 KFSD 181053
MTR9V9
METAR K9V9 181052Z AUTO 13015KT 02/M03 A3003 RMK AO1 SLP178
T00221033





000
SAUS43 KFSD 180953
MTR9V9
METAR K9V9 180952Z AUTO 14014KT 02/M04 A3005 RMK AO1 SLP186
T00221039





000
SAUS43 KFSD 180853
MTR9V9
METAR K9V9 180852Z AUTO 13013KT 03/M04 A3008 RMK AO1 SLP196
T00281039 58015





000
SAUS43 KFSD 180753
MTR9V9
METAR K9V9 180752Z AUTO 14012KT 03/M04 A3011 RMK AO1 SLP206
T00331039





000
SAUS43 KFSD 180653
MTR9V9
METAR K9V9 180652Z AUTO 14014KT 03/M04 A3012 RMK AO1 SLP211
T00281039





000
SAUS43 KFSD 180553
MTR9V9
METAR K9V9 180552Z AUTO 14016KT 02/M03 A3013 RMK AO1 SLP214
T00221033 10072 20022 400941072 56010





000
SAUS43 KFSD 180453
MTR9V9
METAR K9V9 180452Z AUTO 15015KT 03/M03 A3014 RMK AO1 SLP217
T00281033





000
SAUS43 KFSD 180353
MTR9V9
METAR K9V9 180352Z AUTO 13017KT 04/M03 A3014 RMK AO1 SLP220
T00391028





000
SAUS43 KFSD 180253
MTR9V9
METAR K9V9 180252Z AUTO 14011KT 03/M03 A3016 RMK AO1 SLP228
T00331028 55011





000
SAUS43 KFSD 180153
MTR9V9
METAR K9V9 180152Z AUTO 13012KT 04/M03 A3016 RMK AO1 SLP227
T00441033





000
SAUS43 KFSD 180053
MTR9V9
METAR K9V9 180052Z AUTO 13012KT 07/M03 A3017 RMK AO1 SLP232
T00671033





000
SAUS43 KFSD 172353
MTR9V9
METAR K9V9 172352Z AUTO 14010KT 07/M04 A3019 RMK AO1 SLP242
T00671039 10094 20061 56015





000
SAUS43 KFSD 172253
MTR9V9
METAR K9V9 172252Z AUTO 17013KT 07/M04 A3022 RMK AO1 SLP249
T00721044





000
SAUS43 KFSD 172153
MTR9V9
METAR K9V9 172152Z AUTO 16013KT 08/M07 A3021 RMK AO1 SLP247
T00831072





000
SAUS43 KFSD 172053
MTR9V9
METAR K9V9 172052Z AUTO 17014G19KT 08/M08 A3024 RMK AO1 SLP256
T00831078 56019





000
SAUS43 KFSD 171953
MTR9V9
METAR K9V9 171952Z AUTO 12009KT 08/M08 A3026 RMK AO1 SLP262
T00781083





000
SAUS43 KFSD 171853
MTR9V9
METAR K9V9 171852Z AUTO 14008G19KT 07/M08 A3026 RMK AO1 SLP262
T00721078





000
SAUS43 KFSD 171753
MTR9V9
METAR K9V9 171752Z AUTO 15011G17KT 06/M07 A3030 RMK AO1 SLP276
T00611067 10061 21067 58006





000
SAUS43 KFSD 171653
MTR9V9
METAR K9V9 171652Z AUTO 15009G15KT 04/M06 A3032 RMK AO1 SLP283
T00391056





000
SAUS43 KFSD 171553
MTR9V9
METAR K9V9 171552Z AUTO 10005KT 02/M07 A3033 RMK AO1 SLP286
T00221072





000
SAUS43 KFSD 171453
MTR9V9
METAR K9V9 171452Z AUTO 07003KT 01/M04 A3032 RMK AO1 SLP283
T00111039 51003





000
SAUS43 KFSD 171353
MTR9V9
METAR K9V9 171352Z AUTO 00000KT M02/M04 A3031 RMK AO1 SLP284
T10171044





000
SAUS43 KFSD 171253
MTR9V9
METAR K9V9 171252Z AUTO 00000KT M04/M06 A3031 RMK AO1 SLP285
T10391056





000
SAUS43 KFSD 171153
MTR9V9
METAR K9V9 171152Z AUTO 00000KT M07/M09 A3031 RMK AO1 SLP284 7////
T10671089 11033 21072 51020





000
SAUS43 KFSD 171053
MTR9V9
METAR K9V9 171052Z AUTO 31004KT M06/M08 A3030 RMK AO1 SLP281
T10611078





000
SAUS43 KFSD 170953
MTR9V9
METAR K9V9 170952Z AUTO 31005KT M05/M07 A3026 RMK AO1 SLP269
T10501067





000
SAUS43 KFSD 170853
MTR9V9
METAR K9V9 170852Z AUTO 00000KT M06/M07 A3025 RMK AO1 SLP263
T10561072 55001





000
SAUS43 KFSD 170753
MTR9V9
METAR K9V9 170752Z AUTO 34004KT M04/M06 A3024 RMK AO1 SLP260
T10391061





000
SAUS43 KFSD 170653
MTR9V9
METAR K9V9 170652Z AUTO 35005KT M03/M06 A3025 RMK AO1 SLP262
T10331061





000
SAUS43 KFSD 170553
MTR9V9
METAR K9V9 170552Z AUTO 33003KT M04/M06 A3025 RMK AO1 SLP262
T10391056 10006 21039 400111039 51021





000
SAUS43 KFSD 170453
MTR9V9
METAR K9V9 170452Z AUTO 35005KT M03/M06 A3022 RMK AO1 SLPNO
T10281056





000
SAUS43 KFSD 170353
MTR9V9
METAR K9V9 170352Z AUTO 36005KT M02/M06 A3021 RMK AO1 SLPNO
T10171056





000
SAUS43 KFSD 170253
MTR9V9
METAR K9V9 170252Z AUTO 03012KT 00/M04 A3018 RMK AO1 SLPNO T00001044
51025





000
SAUS43 KFSD 170154
MTR9V9
METAR K9V9 170152Z AUTO 02012KT 01/M03 A3016 RMK AO1 SLPNO T00061033





000
SAUS43 KFSD 170053
MTR9V9
METAR K9V9 170052Z AUTO 02011KT 01/M03 A3013 RMK AO1 SLPNO T00061033





    US Dept of Commerce
    National Oceanic and Atmospheric Administration
    National Weather Service
    1325 East West Highway
    Silver Spring, MD 20910
    Page Author: NWS Internet Services Team
Disclaimer
Information Quality
Credits
Glossary
Privacy Policy
Freedom of Information Act (FOIA)
About Us
Career Opportunities